Skip to content.

West Coast

  

Hokitika - HKH

Logged in to unit HSN12157 as: Guest
(Last data received Wed 21 Feb 2018 08:20:00 - 7 minutes ago)

All FWI Graphs Forecast Hourly FWI Daily FWI Download FWI Data

Hourly FWI Logs | Period From 08:20 20/02/2018 to 08:20 21/02/2018

Change the DoC% for the 24hr period starting 12:00pm 20/2/2018 to

If the date above is the current day, then all future logs will inherit this value until such time as it is changed again. If you wish to change historic values you can do so by going back to the day you want to alter (navigate via the graphs) and change the DoC% there (however this will only affect that day).

WindRainHourly FWIsDaily FWIsForestGrassScrub
DateTime (NZST)Temp (C)RH (%)Dir (deg)Speed (km/h)Hourly (mm)Daily (mm)FFMCISIHFWIFFMCDMCDCISIBUIFWIDSRROS (m/h)FFI (kW/m)FFDCDoC (%)ROS (m/h)GFI (kW/m)GFDCROS (m/h)SFI (kW/m)SFDC
21/02/2018 0700 11.8 92.6 138 12.0 0.4 1.1 0.0 0.0 0 0 L 0 0 0 L 0 0 L
21/02/2018 0600 12.1 91.8 135 8.3 9.4 1.1 0.0 0.0 0 0 L 0 0 0 L 0 0 L
21/02/2018 0500 11.4 94.3 173 11.6 0.4 2.4 0.0 0.0 0 0 L 0 0 0 L 0 0 L
21/02/2018 0400 11.6 93.8 164 18.6 3.6 2.6 0.0 0.0 0 0 L 0 0 0 L 0 0 L
21/02/2018 0300 11.9 92.3 170 10.4 3.0 4.6 0.0 0.0 0 0 L 0 0 0 L 0 0 L
21/02/2018 0200 12.3 90.7 153 7.9 4.0 7.0 0.0 0.0 0 0 L 0 0 0 L 0 0 L
21/02/2018 0100 12.6 86.2 237 14.9 2.0 13.7 0.0 0.0 0 0 L 0 0 0 L 0 0 L
21/02/2018 0000 14.8 74.3 38 7.9 0.8 18.4 0.0 0.0 0 0 L 0 0 0 L 0 0 L
20/02/2018 2300 16.1 64.3 88 7.5 0.2 18.5 0.0 0.0 0 0 L 0 0 0 L 0 0 L
20/02/2018 2200 17.2 58.0 128 10.4 0.0 15.7 0.0 0.0 0 0 L 0 0 0 L 0 0 L
20/02/2018 2100 15.7 64.9 100 13.2 0.0 11.4 0.0 0.0 0 0 L 0 0 0 L 0 0 L
20/02/2018 2000 14.3 79.8 111 3.3 0.0 7.5 0.0 0.0 0 0 L 0 0 0 L 0 0 L
20/02/2018 1900 13.8 84.0 337 7.5 0.2 5.6 0.0 0.0 0 0 L 0 0 0 L 0 0 L
20/02/2018 1800 14.0 79.4 124 9.1 2.0 4.3 0.0 0.0 0 0 L 0 0 0 L 0 0 L
20/02/2018 1700 13.1 82.6 139 21.9 4.8 4.1 0.0 0.0 0 0 L 0 0 0 L 0 0 L
20/02/2018 1600 13.4 81.2 138 21.5 3.0 5.2 0.0 0.0 0 0 L 0 0 0 L 0 0 L
20/02/2018 1500 13.6 85.3 147 16.6 2.0 5.2 0.0 0.0 0 0 L 0 0 0 L 0 0 L
20/02/2018 1400 13.4 89.6 164 17.0 6.0 5.3 0.0 0.0 0 0 L 0 0 0 L 0 0 L
20/02/2018 1300 14.3 87.1 137 13.2 4.0 11.6 0.0 0.0 0 0 L 0 0 0 L 0 0 L
20/02/2018 1200 15.3 84.9 134 11.6 2.0 5.6 24.0 0.0 0.0 44.4 1.6 18.5 0.1 2.7 0.0 0.0 0 0 L 0 0 0 L 0 0 L
20/02/2018 1100 15.5 82.5 158 14.5 0.4 35.6 0.0 0.0 0 0 L 0 0 0 L 1 8 L
20/02/2018 1000 15.5 88.4 141 11.6 1.0 36.6 0.0 0.0 0 0 L 0 0 0 L 1 8 L
20/02/2018 0900 16.0 92.6 116 5.0 1.4 44.9 0.1 0.0 0 0 L 0 0 0 L 5 52 M
20/02/2018 0800 15.9 93.6 105 7.0 0.6 63.9 0.7 0.3 1 0 L 0 0 0 L 90 897 H